createdAt,value
2018-06-11T00:01:21.865Z,9.70
2018-06-11T00:03:50.041Z,8.60
2018-06-11T00:06:18.260Z,12.03
2018-06-11T00:08:46.563Z,7.50
2018-06-11T00:11:14.744Z,9.90
2018-06-11T00:13:42.981Z,10.33
2018-06-11T00:16:10.917Z,9.23
2018-06-11T00:18:39.104Z,8.50
2018-06-11T00:21:07.291Z,8.20
2018-06-11T00:23:35.238Z,7.43
2018-06-11T00:26:03.432Z,9.03
2018-06-11T00:28:31.369Z,11.03
2018-06-11T00:30:59.574Z,11.20
2018-06-11T00:33:27.509Z,8.93
2018-06-11T00:35:55.686Z,6.30
2018-06-11T00:38:24.175Z,12.03
2018-06-11T00:40:52.608Z,10.67
2018-06-11T00:43:21.043Z,7.40
2018-06-11T00:45:49.459Z,5.87
2018-06-11T00:48:17.871Z,7.43
2018-06-11T00:50:46.211Z,11.87
2018-06-11T00:53:14.660Z,8.33
2018-06-11T00:55:54.257Z,7.53
2018-06-11T00:58:22.695Z,11.73
2018-06-11T01:00:51.149Z,11.83
2018-06-11T01:03:19.282Z,7.50
2018-06-11T01:05:47.599Z,8.63
2018-06-11T01:08:15.988Z,7.17
2018-06-11T01:10:44.139Z,7.70
2018-06-11T01:13:12.416Z,11.40
2018-06-11T01:15:40.682Z,11.30
2018-06-11T01:18:08.885Z,13.03
2018-06-11T01:20:37.085Z,9.93
2018-06-11T01:23:05.268Z,9.13
2018-06-11T01:25:33.458Z,11.30
2018-06-11T01:28:01.761Z,11.40
2018-06-11T01:30:29.985Z,13.20
2018-06-11T01:32:58.169Z,12.90
2018-06-11T01:35:26.338Z,9.00
2018-06-11T01:37:54.521Z,11.77
2018-06-11T01:40:22.711Z,8.87
2018-06-11T01:42:50.901Z,8.40
2018-06-11T01:45:19.096Z,8.20
2018-06-11T01:47:47.274Z,23.13
2018-06-11T01:50:15.474Z,11.50
2018-06-11T01:52:43.669Z,8.33
2018-06-11T01:55:11.871Z,8.53
2018-06-11T01:57:40.071Z,11.60
2018-06-11T02:00:08.260Z,9.73
2018-06-11T02:02:36.185Z,8.70
2018-06-11T02:05:04.473Z,9.03
2018-06-11T02:07:32.653Z,10.73
2018-06-11T02:10:00.851Z,9.07
2018-06-11T02:12:29.056Z,7.63
2018-06-11T02:14:57.252Z,13.93
2018-06-11T02:17:25.456Z,9.93
2018-06-11T02:19:53.649Z,10.00
2018-06-11T02:22:21.583Z,8.30
2018-06-11T02:24:49.771Z,14.80
2018-06-11T02:27:18.007Z,9.00
2018-06-11T02:29:46.187Z,13.90
2018-06-11T02:32:14.499Z,14.63
2018-06-11T02:34:42.677Z,8.97
2018-06-11T02:37:10.864Z,12.73
2018-06-11T02:39:39.079Z,8.53
2018-06-11T02:42:07.278Z,7.17
2018-06-11T02:44:35.456Z,6.50
2018-06-11T02:47:03.694Z,8.20
2018-06-11T02:49:31.862Z,8.50
2018-06-11T02:51:59.834Z,9.13
2018-06-11T02:54:28.029Z,11.80
2018-06-11T02:56:56.200Z,7.77
2018-06-11T02:59:24.396Z,8.90
2018-06-11T03:01:52.580Z,7.70
2018-06-11T03:04:20.755Z,9.17
2018-06-11T03:06:48.938Z,11.00
2018-06-11T03:09:17.140Z,10.53
2018-06-11T03:11:45.648Z,11.13
2018-06-11T03:14:13.856Z,26.27
2018-06-11T03:16:42.059Z,18.27
2018-06-11T03:19:10.001Z,11.33
2018-06-11T03:21:38.194Z,9.83
2018-06-11T03:24:06.368Z,12.20
2018-06-11T03:26:34.543Z,9.30
2018-06-11T03:29:02.481Z,12.23
2018-06-11T03:31:30.672Z,7.93
2018-06-11T03:33:58.602Z,11.57
2018-06-11T03:36:26.795Z,9.07
2018-06-11T03:38:54.984Z,7.80
2018-06-11T03:41:23.176Z,10.23
2018-06-11T03:43:51.103Z,9.73
2018-06-11T03:46:19.324Z,9.00
2018-06-11T03:48:47.543Z,7.80
2018-06-11T03:51:15.736Z,6.73
2018-06-11T03:53:43.966Z,7.27
2018-06-11T03:56:12.153Z,7.97
2018-06-11T03:58:40.343Z,9.93
2018-06-11T04:01:08.553Z,12.53
2018-06-11T04:03:36.499Z,10.00
2018-06-11T04:06:04.804Z,6.10
2018-06-11T04:08:32.991Z,10.07
2018-06-11T04:11:01.261Z,6.43
2018-06-11T04:13:29.866Z,7.03
2018-06-11T04:15:58.057Z,5.90
2018-06-11T04:18:26.245Z,9.77
2018-06-11T04:20:54.421Z,7.13
2018-06-11T04:23:22.616Z,7.00
2018-06-11T04:25:50.806Z,10.13
2018-06-11T04:28:19.024Z,10.63
2018-06-11T04:30:47.201Z,9.80
2018-06-11T04:33:15.474Z,8.83
2018-06-11T04:35:43.660Z,12.20
2018-06-11T04:38:11.854Z,17.77
2018-06-11T04:40:40.043Z,10.27
2018-06-11T04:43:07.978Z,6.83
2018-06-11T04:45:36.167Z,8.07
2018-06-11T04:48:04.373Z,6.97
2018-06-11T04:50:32.350Z,10.33
2018-06-11T04:53:00.526Z,9.90
2018-06-11T04:55:28.742Z,14.93
2018-06-11T04:57:56.914Z,8.90
2018-06-11T05:00:25.090Z,6.53
2018-06-11T05:02:53.304Z,16.27
2018-06-11T05:05:21.482Z,9.97
2018-06-11T05:07:49.423Z,11.30
2018-06-11T05:10:17.606Z,9.37
2018-06-11T05:12:46.348Z,8.73
2018-06-11T05:15:14.547Z,6.33
2018-06-11T05:17:42.728Z,14.00
2018-06-11T05:20:10.978Z,7.00
2018-06-11T05:22:39.125Z,7.50
2018-06-11T05:25:07.308Z,13.43
2018-06-11T05:27:35.510Z,14.07
2018-06-11T05:30:03.741Z,7.67
2018-06-11T05:32:31.920Z,8.27
2018-06-11T05:35:00.119Z,8.27
2018-06-11T05:37:28.314Z,6.70
2018-06-11T05:39:56.486Z,5.93
2018-06-11T05:42:24.678Z,9.87
2018-06-11T05:44:52.880Z,6.43
2018-06-11T05:47:21.126Z,6.03
2018-06-11T05:49:49.330Z,6.20
2018-06-11T05:52:17.567Z,5.57
2018-06-11T05:54:45.759Z,11.67
2018-06-11T05:57:13.966Z,7.90
2018-06-11T05:59:42.166Z,7.03
2018-06-11T06:02:10.370Z,8.40
2018-06-11T06:04:38.570Z,10.30
2018-06-11T06:07:06.513Z,7.07
2018-06-11T06:09:34.753Z,8.37
2018-06-11T06:12:02.951Z,12.13
2018-06-11T06:14:31.124Z,22.93
2018-06-11T06:16:59.353Z,9.50
2018-06-11T06:19:27.528Z,7.10
2018-06-11T06:21:55.692Z,5.83
2018-06-11T06:24:23.875Z,6.80
2018-06-11T06:26:52.085Z,7.83
2018-06-11T06:29:20.260Z,10.33
2018-06-11T06:31:48.463Z,6.73
2018-06-11T06:34:16.723Z,8.73
2018-06-11T06:36:44.832Z,9.23
2018-06-11T06:39:13.035Z,8.60
2018-06-11T06:41:41.255Z,5.20
2018-06-11T06:44:09.465Z,8.53
2018-06-11T06:46:37.679Z,11.97
2018-06-11T06:49:05.872Z,4.10
2018-06-11T06:51:34.049Z,14.13
2018-06-11T06:54:02.263Z,6.70
2018-06-11T06:56:30.455Z,5.60
2018-06-11T06:58:58.677Z,10.30
2018-06-11T07:01:26.613Z,10.30
2018-06-11T07:03:54.828Z,7.00
2018-06-11T07:06:22.767Z,9.03
2018-06-11T07:08:50.964Z,6.03
2018-06-11T07:11:18.896Z,6.23
2018-06-11T07:13:47.162Z,12.47
2018-06-11T07:16:15.325Z,8.00
2018-06-11T07:18:43.525Z,8.27
2018-06-11T07:21:11.701Z,7.83
2018-06-11T07:23:39.903Z,17.30
2018-06-11T07:26:07.845Z,16.07
2018-06-11T07:28:36.047Z,8.00
2018-06-11T07:31:03.994Z,6.60
2018-06-11T07:33:32.181Z,5.13
2018-06-11T07:36:00.369Z,9.07
2018-06-11T07:38:28.318Z,8.93
2018-06-11T07:40:56.518Z,7.50
2018-06-11T07:43:24.721Z,11.63
2018-06-11T07:45:52.920Z,13.13
2018-06-11T07:48:21.107Z,5.30
2018-06-11T07:50:49.310Z,7.40
2018-06-11T07:53:17.493Z,13.73
2018-06-11T07:55:45.690Z,14.57
2018-06-11T07:58:13.896Z,9.63
2018-06-11T08:00:42.100Z,14.17
2018-06-11T08:03:10.300Z,7.70
2018-06-11T08:05:38.500Z,13.47
2018-06-11T08:08:06.670Z,8.87
2018-06-11T08:10:34.910Z,7.33
2018-06-11T08:13:03.102Z,10.73
2018-06-11T08:15:31.311Z,12.70
2018-06-11T08:17:59.496Z,15.03
2018-06-11T08:20:27.685Z,15.83
2018-06-11T08:22:56.547Z,13.23
2018-06-11T08:25:24.735Z,10.13
2018-06-11T08:27:52.932Z,15.13
2018-06-11T08:30:20.886Z,12.40
2018-06-11T08:32:49.086Z,16.13
2018-06-11T08:35:17.292Z,8.53
2018-06-11T08:37:45.475Z,10.63
2018-06-11T08:40:13.669Z,17.83
2018-06-11T08:42:41.863Z,18.03
2018-06-11T08:45:09.845Z,14.40
2018-06-11T08:47:37.786Z,11.57
2018-06-11T08:50:06.033Z,11.97
2018-06-11T08:52:34.176Z,18.10
2018-06-11T08:55:03.363Z,8.50
2018-06-11T08:57:31.618Z,23.53
2018-06-11T08:59:59.927Z,12.67
2018-06-11T09:02:28.017Z,25.77
2018-06-11T09:04:56.196Z,18.63
2018-06-11T09:07:24.393Z,12.63
2018-06-11T09:09:52.571Z,16.53
2018-06-11T09:12:20.751Z,16.33
2018-06-11T09:14:48.948Z,17.37
2018-06-11T09:17:16.876Z,25.40
2018-06-11T09:19:45.073Z,28.63
2018-06-11T09:22:13.289Z,14.70
2018-06-11T09:24:41.478Z,9.20
2018-06-11T09:27:09.704Z,19.57
2018-06-11T09:29:37.897Z,31.50
2018-06-11T09:32:06.107Z,36.13
2018-06-11T09:34:34.278Z,45.73
2018-06-11T09:37:02.475Z,23.67
2018-06-11T09:39:30.684Z,33.70
2018-06-11T09:41:58.866Z,19.73
2018-06-11T09:44:27.069Z,27.80
2018-06-11T09:46:55.268Z,24.97
2018-06-11T09:49:23.476Z,38.27
2018-06-11T09:51:51.662Z,13.77
2018-06-11T09:54:19.850Z,21.90
2018-06-11T09:56:48.078Z,25.47
2018-06-11T09:59:16.271Z,28.50
2018-06-11T10:01:44.486Z,27.77
2018-06-11T10:04:12.688Z,30.67
2018-06-11T10:06:40.879Z,26.33
2018-06-11T10:09:08.851Z,14.37
2018-06-11T10:11:37.034Z,26.00
2018-06-11T10:14:05.452Z,44.47
2018-06-11T10:16:33.659Z,33.63
2018-06-11T10:19:01.914Z,25.37
2018-06-11T10:21:30.092Z,29.03
2018-06-11T10:23:58.291Z,33.70
2018-06-11T10:26:26.478Z,24.53
2018-06-11T10:28:54.433Z,38.90
2018-06-11T10:31:22.627Z,19.33
2018-06-11T10:33:50.839Z,31.53
2018-06-11T10:36:19.041Z,41.57
2018-06-11T10:38:47.222Z,19.43
2018-06-11T10:41:15.446Z,24.77
2018-06-11T10:43:43.661Z,37.63
2018-06-11T10:46:11.835Z,44.27
2018-06-11T10:48:40.044Z,29.93
2018-06-11T10:51:07.977Z,48.57
2018-06-11T10:53:36.179Z,26.00
2018-06-11T10:56:04.149Z,27.40
2018-06-11T10:58:32.096Z,26.73
2018-06-11T11:01:00.290Z,20.63
2018-06-11T11:03:28.235Z,29.17
2018-06-11T11:05:56.432Z,18.47
2018-06-11T11:08:24.402Z,28.90
2018-06-11T11:10:52.604Z,29.47
2018-06-11T11:13:20.879Z,31.83
2018-06-11T11:15:49.075Z,39.70
2018-06-11T11:18:17.255Z,32.30
2018-06-11T11:20:45.447Z,36.03
2018-06-11T11:23:13.642Z,24.60
2018-06-11T11:25:41.822Z,20.63
2018-06-11T11:28:09.753Z,36.33
2018-06-11T11:30:37.957Z,26.37
2018-06-11T11:33:05.893Z,20.57
2018-06-11T11:35:34.078Z,20.00
2018-06-11T11:38:02.272Z,27.73
2018-06-11T11:40:30.459Z,28.93
2018-06-11T11:42:58.387Z,47.83
2018-06-11T11:45:26.590Z,40.57
2018-06-11T11:47:54.773Z,32.87
2018-06-11T11:50:22.719Z,33.63
2018-06-11T11:52:50.905Z,34.20
2018-06-11T11:55:19.082Z,24.40
2018-06-11T11:57:47.030Z,28.20
2018-06-11T12:00:15.240Z,27.10
2018-06-11T12:02:43.444Z,30.83
2018-06-11T12:05:11.634Z,37.77
2018-06-11T12:07:39.867Z,23.40
2018-06-11T12:10:08.016Z,25.07
2018-06-11T12:12:36.230Z,21.23
2018-06-11T12:15:04.414Z,17.13
2018-06-11T12:17:32.621Z,23.53
2018-06-11T12:20:00.816Z,22.33
2018-06-11T12:22:28.766Z,24.70
2018-06-11T12:24:56.976Z,27.93
2018-06-11T12:27:25.166Z,23.70
2018-06-11T12:29:53.377Z,23.17
2018-06-11T12:32:21.633Z,29.10
2018-06-11T12:34:49.840Z,25.50
2018-06-11T12:37:18.077Z,22.13
2018-06-11T12:39:46.300Z,20.60
2018-06-11T12:42:14.438Z,17.53
2018-06-11T12:44:42.640Z,25.27
2018-06-11T12:47:10.839Z,24.13
2018-06-11T12:49:39.024Z,19.23
2018-06-11T12:52:07.218Z,23.47
2018-06-11T12:54:35.431Z,15.30
2018-06-11T12:57:03.625Z,19.00
2018-06-11T12:59:31.591Z,36.87
2018-06-11T13:01:59.770Z,30.67
2018-06-11T13:04:27.977Z,22.93
2018-06-11T13:06:56.162Z,22.40
2018-06-11T13:09:24.368Z,23.17
2018-06-11T13:11:52.581Z,20.63
2018-06-11T13:14:20.811Z,24.00
2018-06-11T13:16:49.012Z,20.30
2018-06-11T13:19:16.958Z,17.27
2018-06-11T13:21:45.722Z,37.33
2018-06-11T13:24:13.923Z,19.80
2018-06-11T13:26:42.139Z,12.07
2018-06-11T13:29:10.383Z,16.07
2018-06-11T13:31:38.611Z,29.70
2018-06-11T13:34:06.816Z,19.00
2018-06-11T13:36:34.998Z,17.73
2018-06-11T13:39:05.332Z,31.50
2018-06-11T13:41:33.519Z,26.10
2018-06-11T13:44:01.695Z,25.00
2018-06-11T13:46:29.901Z,19.40
2018-06-11T13:48:58.089Z,14.73
2018-06-11T13:51:26.293Z,18.47
2018-06-11T13:53:54.480Z,33.77
2018-06-11T13:56:22.436Z,29.60
2018-06-11T13:58:50.619Z,30.83
2018-06-11T14:01:18.832Z,15.67
2018-06-11T14:03:47.023Z,35.33
2018-06-11T14:06:15.214Z,17.27
2018-06-11T14:08:43.446Z,18.10
2018-06-11T14:11:11.623Z,28.67
2018-06-11T14:13:39.849Z,20.77
2018-06-11T14:16:08.038Z,23.37
2018-06-11T14:18:36.247Z,26.30
2018-06-11T14:21:04.429Z,28.57
2018-06-11T14:23:32.621Z,15.40
2018-06-11T14:26:00.809Z,28.37
2018-06-11T14:28:29.051Z,22.03
2018-06-11T14:30:57.248Z,28.63
2018-06-11T14:33:25.445Z,28.20
2018-06-11T14:35:53.375Z,24.67
2018-06-11T14:38:21.575Z,73.00
2018-06-11T14:40:49.768Z,24.13
2018-06-11T14:43:17.701Z,25.50
2018-06-11T14:45:46.241Z,27.00
2018-06-11T14:48:14.444Z,25.03
2018-06-11T14:50:42.622Z,22.87
2018-06-11T14:53:10.821Z,22.70
2018-06-11T14:55:39.002Z,33.43
2018-06-11T14:58:07.246Z,24.40
2018-06-11T15:00:35.415Z,27.63
2018-06-11T15:03:03.623Z,30.10
2018-06-11T15:05:31.865Z,35.17
2018-06-11T15:08:00.063Z,26.37
2018-06-11T15:10:28.317Z,48.30
2018-06-11T15:12:56.510Z,33.77
2018-06-11T15:15:24.699Z,22.97
2018-06-11T15:17:52.646Z,44.63
2018-06-11T15:20:20.841Z,23.03
2018-06-11T15:22:49.027Z,23.93
2018-06-11T15:25:16.986Z,28.53
2018-06-11T15:27:45.188Z,45.90
2018-06-11T15:30:13.411Z,31.93
2018-06-11T15:32:41.611Z,28.97
2018-06-11T15:35:09.818Z,34.10
2018-06-11T15:37:37.997Z,25.83
2018-06-11T15:40:06.289Z,29.63
2018-06-11T15:42:34.481Z,18.90
2018-06-11T15:45:02.689Z,19.53
2018-06-11T15:47:30.873Z,28.37
2018-06-11T15:49:59.086Z,30.73
2018-06-11T15:52:27.267Z,24.87
2018-06-11T15:54:55.483Z,24.03
2018-06-11T15:57:23.687Z,25.53
2018-06-11T15:59:51.865Z,24.37
2018-06-11T16:02:20.076Z,24.57
2018-06-11T16:04:48.287Z,23.43
2018-06-11T16:07:16.485Z,24.87
2018-06-11T16:09:44.685Z,25.23
2018-06-11T16:12:12.904Z,29.77
2018-06-11T16:14:40.888Z,26.57
2018-06-11T16:17:09.095Z,32.30
2018-06-11T16:19:37.266Z,21.83
2018-06-11T16:22:05.495Z,29.20
2018-06-11T16:24:33.766Z,23.73
2018-06-11T16:27:01.717Z,23.13
2018-06-11T16:29:29.912Z,28.93
2018-06-11T16:31:57.856Z,23.63
2018-06-11T16:34:26.072Z,34.80
2018-06-11T16:36:54.271Z,30.20
2018-06-11T16:39:22.458Z,22.07
2018-06-11T16:41:50.657Z,29.03
2018-06-11T16:44:18.844Z,20.23
2018-06-11T16:46:46.787Z,21.83
2018-06-11T16:49:15.058Z,22.50
2018-06-11T16:51:43.251Z,33.37
2018-06-11T16:54:11.448Z,29.57
2018-06-11T16:56:39.656Z,20.43
2018-06-11T16:59:07.843Z,30.43
2018-06-11T17:01:36.061Z,30.57
2018-06-11T17:04:03.993Z,25.37
2018-06-11T17:06:32.193Z,21.20
2018-06-11T17:09:00.387Z,32.67
2018-06-11T17:11:28.588Z,21.60
2018-06-11T17:13:56.803Z,18.87
2018-06-11T17:16:25.019Z,27.87
2018-06-11T17:18:53.220Z,19.63
2018-06-11T17:21:21.414Z,29.27
2018-06-11T17:23:49.617Z,13.53
2018-06-11T17:26:17.587Z,19.73
2018-06-11T17:28:45.790Z,22.47
2018-06-11T17:31:14.001Z,16.53
2018-06-11T17:33:42.184Z,36.27
2018-06-11T17:36:10.375Z,24.80
2018-06-11T17:38:38.313Z,37.10
2018-06-11T17:41:06.491Z,20.10
2018-06-11T17:43:34.704Z,22.87
2018-06-11T17:46:02.910Z,35.53
2018-06-11T17:48:31.091Z,27.00
2018-06-11T17:50:59.271Z,34.33
2018-06-11T17:53:27.478Z,18.73
2018-06-11T17:55:55.666Z,21.63
2018-06-11T17:58:23.705Z,36.70
2018-06-11T18:00:51.921Z,25.03
2018-06-11T18:03:20.120Z,24.10
2018-06-11T18:05:48.311Z,22.30
2018-06-11T18:08:16.512Z,22.43
2018-06-11T18:10:44.976Z,16.20
2018-06-11T18:13:13.214Z,22.83
2018-06-11T18:15:41.428Z,22.53
2018-06-11T18:18:09.627Z,16.43
2018-06-11T18:20:37.823Z,22.37
2018-06-11T18:23:06.033Z,17.00
2018-06-11T18:25:34.256Z,15.80
2018-06-11T18:28:02.683Z,13.13
2018-06-11T18:30:30.878Z,13.17
2018-06-11T18:32:59.091Z,23.20
2018-06-11T18:35:27.295Z,13.47
2018-06-11T18:37:55.488Z,21.80
2018-06-11T18:40:23.675Z,15.10
2018-06-11T18:42:51.886Z,22.73
2018-06-11T18:45:20.078Z,34.07
2018-06-11T18:47:48.314Z,15.43
2018-06-11T18:50:16.542Z,16.87
2018-06-11T18:52:44.728Z,23.30
2018-06-11T18:55:12.921Z,12.47
2018-06-11T18:57:41.151Z,23.30
2018-06-11T19:00:09.350Z,17.37
2018-06-11T19:02:37.549Z,24.50
2018-06-11T19:05:05.784Z,21.93
2018-06-11T19:07:33.984Z,29.87
2018-06-11T19:10:02.171Z,17.27
2018-06-11T19:12:30.525Z,15.37
2018-06-11T19:14:58.724Z,10.83
2018-06-11T19:17:26.918Z,20.90
2018-06-11T19:19:54.876Z,17.37
2018-06-11T19:22:23.065Z,12.80
2018-06-11T19:24:51.275Z,25.43
2018-06-11T19:27:19.486Z,14.90
2018-06-11T19:29:47.710Z,24.83
2018-06-11T19:32:16.115Z,11.97
2018-06-11T19:34:44.332Z,25.00
2018-06-11T19:37:12.305Z,22.37
2018-06-11T19:39:40.267Z,31.97
2018-06-11T19:42:08.224Z,19.30
2018-06-11T19:44:36.475Z,25.37
2018-06-11T19:47:04.687Z,28.13
2018-06-11T19:49:32.906Z,16.53
2018-06-11T19:52:01.128Z,15.97
2018-06-11T19:54:29.352Z,19.13
2018-06-11T19:56:57.569Z,16.07
2018-06-11T19:59:25.780Z,19.00
2018-06-11T20:01:53.989Z,26.70
2018-06-11T20:04:22.801Z,35.87
2018-06-11T20:06:51.014Z,20.77
2018-06-11T20:09:19.322Z,19.70
2018-06-11T20:11:47.273Z,16.37
2018-06-11T20:14:15.525Z,16.00
2018-06-11T20:16:43.732Z,16.83
2018-06-11T20:19:11.947Z,17.70
2018-06-11T20:21:40.190Z,8.00
2018-06-11T20:24:08.423Z,17.67
2018-06-11T20:26:36.439Z,10.87
2018-06-11T20:29:04.658Z,17.10
2018-06-11T20:31:32.975Z,35.17
2018-06-11T20:34:01.169Z,19.63
2018-06-11T20:36:29.464Z,14.00
2018-06-11T20:38:57.674Z,21.90
2018-06-11T20:41:25.631Z,23.67
2018-06-11T20:43:53.597Z,16.40
2018-06-11T20:46:22.345Z,22.00
2018-06-11T20:48:50.560Z,21.87
2018-06-11T20:51:18.763Z,20.07
2018-06-11T20:53:47.009Z,14.93
2018-06-11T20:56:15.250Z,18.97
2018-06-11T20:58:43.487Z,18.63
2018-06-11T21:01:12.105Z,14.50
2018-06-11T21:03:40.674Z,22.90
2018-06-11T21:06:09.265Z,17.97
2018-06-11T21:08:37.795Z,18.33
2018-06-11T21:11:06.071Z,20.57
2018-06-11T21:13:34.279Z,30.77
2018-06-11T21:16:02.637Z,16.63
2018-06-11T21:18:30.549Z,23.00
2018-06-11T21:20:59.260Z,22.03
2018-06-11T21:23:27.973Z,17.80
2018-06-11T21:25:56.551Z,22.73
2018-06-11T21:28:25.160Z,15.57
2018-06-11T21:30:53.877Z,15.23
2018-06-11T21:33:22.490Z,20.40
2018-06-11T21:35:50.461Z,27.63
2018-06-11T21:38:20.549Z,31.27
2018-06-11T21:40:48.891Z,18.50
2018-06-11T21:43:17.136Z,18.03
2018-06-11T21:45:45.117Z,25.27
2018-06-11T21:48:13.336Z,19.93
2018-06-11T21:50:41.608Z,10.97
2018-06-11T21:53:10.682Z,18.80
2018-06-11T21:55:38.888Z,18.40
2018-06-11T21:58:07.103Z,10.40
2018-06-11T22:00:35.652Z,15.53
2018-06-11T22:03:04.741Z,21.50
2018-06-11T22:05:32.995Z,14.97
2018-06-11T22:08:02.310Z,14.37
2018-06-11T22:10:31.070Z,12.37
2018-06-11T22:12:59.630Z,13.63
2018-06-11T22:15:28.143Z,13.60
2018-06-11T22:17:56.766Z,16.70
2018-06-11T22:20:25.353Z,17.00
2018-06-11T22:22:53.934Z,12.00
2018-06-11T22:25:22.455Z,18.63
2018-06-11T22:27:50.954Z,15.17
2018-06-11T22:30:19.538Z,29.43
2018-06-11T22:32:47.979Z,16.83
2018-06-11T22:35:16.467Z,17.23
2018-06-11T22:37:45.019Z,15.07
2018-06-11T22:40:13.546Z,8.73
2018-06-11T22:42:41.989Z,9.77
2018-06-11T22:45:10.526Z,12.83
2018-06-11T22:47:39.210Z,19.27
2018-06-11T22:50:07.771Z,9.17
2018-06-11T22:52:36.312Z,13.63
2018-06-11T22:55:04.360Z,17.37
2018-06-11T22:57:32.586Z,13.03
2018-06-11T23:00:00.826Z,11.10
2018-06-11T23:02:29.046Z,20.83
2018-06-11T23:04:57.280Z,13.10
2018-06-11T23:07:25.506Z,15.27
2018-06-11T23:09:53.719Z,17.70
2018-06-11T23:12:21.943Z,16.13
2018-06-11T23:14:50.139Z,11.07
2018-06-11T23:17:18.412Z,15.40
2018-06-11T23:19:46.616Z,12.30
2018-06-11T23:22:14.970Z,22.87
2018-06-11T23:24:42.967Z,11.07
2018-06-11T23:27:11.193Z,14.10
2018-06-11T23:29:39.394Z,10.27
2018-06-11T23:32:07.618Z,20.93
2018-06-11T23:34:35.553Z,16.53
2018-06-11T23:37:03.774Z,9.17
2018-06-11T23:39:32.020Z,12.47
2018-06-11T23:42:00.230Z,9.20
2018-06-11T23:44:28.441Z,10.37
2018-06-11T23:46:56.672Z,11.60
2018-06-11T23:49:24.890Z,11.70
2018-06-11T23:51:53.110Z,9.00
2018-06-11T23:54:21.375Z,10.60
2018-06-11T23:56:49.569Z,10.67
2018-06-11T23:59:17.789Z,11.93
